Terminal Aerodrome Forecast
Issued by NWS

Home | Current Version | Previous Version | Text Only | Print | Product List | Glossary On
Versions: 1 2 3 4 5 6 7 8 9 10 11 12 13 14 15 16
000
FTUS46 KLOX 011459 AAA
TAFSBA
TAF AMD
KSBA 011459Z 0115/0212 VRB05KT 4SM BR OVC010
     FM011800 16005KT P6SM BKN020
     FM012200 23008KT P6SM SKC
     FM020300 VRB03KT P6SM OVC015=

USA.gov is the U.S. government's official web portal to all federal, state and local government web resources and services.